Time;durP1;ratioP1;P1;durP2;ratioP2;P2;SDS_P1;SDS_P2;PMS_P1;PMS_P2;Temp;Humidity;BMP_temperature;BMP_pressure;BME280_temperature;BME280_humidity;BME280_pressure;Samples;Min_cycle;Max_cycle;Signal;HPM_P1;HPM_P2
2023/03/03 00:01:33;;;;;;;68.80;31.30;;;;;;;-2.25;62.20;101632.42;107273;1254;108100;-61
2023/03/03 00:04:01;;;;;;;66.30;29.00;;;;;;;-2.26;62.48;101628.05;107371;1254;97832;-60
2023/03/03 00:06:30;;;;;;;65.90;30.60;;;;;;;-2.27;62.50;101629.48;107448;1254;98361;-60
2023/03/03 00:08:58;;;;;;;60.10;28.90;;;;;;;-2.28;62.77;101627.57;107458;1254;112170;-60
2023/03/03 00:11:26;;;;;;;79.40;29.90;;;;;;;-2.26;63.05;101621.21;107374;1259;110132;-60
2023/03/03 00:13:56;;;;;;;62.60;30.60;;;;;;;-2.24;63.25;101617.65;107396;1254;107557;-62
2023/03/03 00:16:26;;;;;;;61.00;30.10;;;;;;;-2.23;63.69;101613.58;107446;1254;97855;-60
2023/03/03 00:18:55;;;;;;;69.50;30.50;;;;;;;-2.20;63.95;101615.80;107408;1254;97730;-60
2023/03/03 00:21:28;;;;;;;70.90;30.10;;;;;;;-2.18;64.06;101612.95;107318;1254;112717;-59
2023/03/03 00:24:15;;;;;;;59.30;28.60;;;;;;;-2.13;64.51;101609.86;107420;1254;109040;-59
2023/03/03 00:26:45;;;;;;;96.20;29.70;;;;;;;-2.10;64.46;101608.39;107396;1257;108283;-58
2023/03/03 00:29:35;;;;;;;82.80;30.30;;;;;;;-2.10;64.84;101603.63;107239;1254;97996;-59
2023/03/03 00:32:15;;;;;;;68.10;28.80;;;;;;;-2.08;64.85;101601.83;107384;1254;97665;-59
2023/03/03 00:34:44;;;;;;;64.60;27.90;;;;;;;-2.07;65.07;101596.17;107584;1254;112032;-60
2023/03/03 00:37:31;;;;;;;69.50;28.80;;;;;;;-2.03;65.03;101596.28;107533;1254;110083;-59
2023/03/03 00:40:17;;;;;;;58.40;27.00;;;;;;;-2.02;65.13;101595.39;107213;1257;107500;-58
2023/03/03 00:42:50;;;;;;;58.60;26.70;;;;;;;-2.04;64.85;101590.67;107340;1257;97832;-61
2023/03/03 00:45:46;;;;;;;65.80;30.00;;;;;;;-2.07;64.97;101580.70;107421;1254;97815;-59
2023/03/03 00:48:15;;;;;;;64.60;28.80;;;;;;;-2.08;65.17;101580.91;107490;1254;111583;-59
2023/03/03 00:50:44;;;;;;;60.90;27.10;;;;;;;-2.08;65.36;101573.17;107480;1254;108924;-60
2023/03/03 00:53:16;;;;;;;64.30;28.60;;;;;;;-2.07;65.14;101571.04;107457;1257;107278;-60
2023/03/03 00:55:47;;;;;;;59.50;29.10;;;;;;;-2.05;65.52;101572.56;107480;1254;97890;-59
2023/03/03 00:58:20;;;;;;;58.20;28.50;;;;;;;-2.05;65.61;101569.22;107379;1254;97705;-59
2023/03/03 01:00:52;;;;;;;68.40;29.40;;;;;;;-2.05;64.98;101566.96;107344;1254;112133;-58
2023/03/03 01:03:25;;;;;;;70.00;30.50;;;;;;;-2.08;65.16;101565.25;107365;1254;109254;-60
2023/03/03 01:05:54;;;;;;;66.90;29.50;;;;;;;-2.11;64.97;101567.45;107183;1257;107452;-59
2023/03/03 01:08:23;;;;;;;66.40;31.70;;;;;;;-2.14;64.64;101568.21;107399;1254;97943;-60
2023/03/03 01:10:54;;;;;;;59.80;27.10;;;;;;;-2.18;64.62;101564.27;107319;1256;97821;-59
2023/03/03 01:13:27;;;;;;;58.60;27.90;;;;;;;-2.24;64.21;101561.93;107465;1254;111933;-60
2023/03/03 01:15:56;;;;;;;69.50;28.50;;;;;;;-2.30;64.28;101560.49;107412;1254;109883;-58
2023/03/03 01:18:26;;;;;;;65.40;28.50;;;;;;;-2.37;64.37;101561.17;107472;1254;109082;-58
2023/03/03 01:20:54;;;;;;;55.10;28.30;;;;;;;-2.45;64.63;101562.40;107421;1254;97817;-59
2023/03/03 01:23:23;;;;;;;61.80;29.40;;;;;;;-2.53;64.34;101554.48;107433;1254;97915;-60
2023/03/03 01:25:51;;;;;;;60.70;28.50;;;;;;;-2.58;64.47;101554.95;107487;1258;111972;-60
2023/03/03 01:28:20;;;;;;;63.60;28.50;;;;;;;-2.61;64.43;101558.00;107490;1254;109654;-60
2023/03/03 01:30:48;;;;;;;60.80;30.30;;;;;;;-2.66;64.38;101552.81;107514;1254;108475;-60
2023/03/03 01:33:17;;;;;;;66.80;31.10;;;;;;;-2.71;64.83;101550.11;107403;1254;97856;-59
2023/03/03 01:35:46;;;;;;;59.50;29.20;;;;;;;-2.77;64.35;101549.70;107302;1254;97797;-59
2023/03/03 01:38:15;;;;;;;55.00;28.40;;;;;;;-2.82;64.56;101548.23;107385;1254;111288;-60
2023/03/03 01:40:52;;;;;;;63.50;30.30;;;;;;;-2.88;64.47;101551.52;107483;1254;109882;-60
2023/03/03 01:43:21;;;;;;;63.20;29.30;;;;;;;-2.92;64.65;101545.99;107448;1254;107495;-59
2023/03/03 01:45:50;;;;;;;65.60;28.20;;;;;;;-2.96;64.35;101542.73;107421;1254;97854;-59
2023/03/03 01:48:30;;;;;;;70.20;28.10;;;;;;;-3.00;64.73;101538.04;107426;1254;97745;-60
2023/03/03 01:51:01;;;;;;;51.00;26.30;;;;;;;-3.05;64.30;101538.15;107477;1254;112417;-59
2023/03/03 01:53:38;;;;;;;59.90;28.60;;;;;;;-3.09;64.41;101536.30;107436;1254;110061;-59
2023/03/03 01:56:08;;;;;;;57.20;28.40;;;;;;;-3.13;64.19;101534.98;107375;1254;107716;-59
2023/03/03 01:58:57;;;;;;;53.60;25.60;;;;;;;-3.17;64.52;101532.59;107340;1254;98357;-59
2023/03/03 02:01:28;;;;;;;59.00;26.50;;;;;;;-3.21;64.27;101532.67;107451;1254;97705;-60
2023/03/03 02:03:58;;;;;;;67.70;27.10;;;;;;;-3.26;64.30;101532.41;107318;1257;111952;-59
2023/03/03 02:06:34;;;;;;;62.90;27.80;;;;;;;-3.29;64.72;101535.80;107457;1254;109964;-61
2023/03/03 02:09:16;;;;;;;54.80;25.80;;;;;;;-3.34;64.94;101530.45;107255;1255;109276;-60
2023/03/03 02:11:49;;;;;;;56.20;27.30;;;;;;;-3.38;65.33;101529.83;107415;1254;97841;-61
2023/03/03 02:14:18;;;;;;;57.20;27.80;;;;;;;-3.38;65.21;101532.98;107464;1257;97705;-59
2023/03/03 02:16:47;;;;;;;59.00;30.10;;;;;;;-3.39;65.02;101530.38;107454;1254;111801;-59
2023/03/03 02:19:41;;;;;;;64.30;28.20;;;;;;;-3.39;64.76;101526.00;107456;1254;109677;-59
2023/03/03 02:22:13;;;;;;;59.40;29.20;;;;;;;-3.39;65.03;101525.45;107303;1254;108703;-59
2023/03/03 02:24:48;;;;;;;59.60;26.90;;;;;;;-3.40;64.87;101525.14;107411;1254;97938;-59
2023/03/03 02:27:17;;;;;;;59.40;25.90;;;;;;;-3.41;64.78;101526.56;107419;1254;98354;-59
2023/03/03 02:29:46;;;;;;;61.00;28.60;;;;;;;-3.41;64.96;101525.51;107387;1254;111812;-62
2023/03/03 02:32:14;;;;;;;62.70;28.30;;;;;;;-3.41;65.51;101524.44;107443;1253;109255;-60
2023/03/03 02:34:49;;;;;;;52.70;26.70;;;;;;;-3.39;65.39;101525.11;107492;1254;107794;-60
2023/03/03 02:37:19;;;;;;;59.80;26.20;;;;;;;-3.40;65.91;101520.91;107590;1254;97817;-59
2023/03/03 02:39:47;;;;;;;58.00;27.10;;;;;;;-3.39;66.22;101519.86;107577;1254;98366;-60
2023/03/03 02:42:20;;;;;;;68.50;26.90;;;;;;;-3.37;66.39;101519.47;107563;1254;112220;-58
2023/03/03 02:44:53;;;;;;;60.60;26.50;;;;;;;-3.36;66.84;101516.64;107512;1256;109539;-59
2023/03/03 02:47:21;;;;;;;57.20;26.80;;;;;;;-3.33;67.00;101510.96;107482;1254;108548;-59
2023/03/03 02:49:50;;;;;;;59.30;26.00;;;;;;;-3.30;66.92;101509.67;107450;1254;97854;-61
2023/03/03 02:52:18;;;;;;;56.20;26.30;;;;;;;-3.22;67.29;101510.59;107573;1253;98369;-59
2023/03/03 02:54:47;;;;;;;68.60;26.90;;;;;;;-3.16;67.02;101508.20;107566;1254;110678;-59
2023/03/03 02:57:15;;;;;;;54.50;24.90;;;;;;;-3.10;67.29;101509.99;107482;1254;111000;-60
2023/03/03 02:59:44;;;;;;;67.60;26.80;;;;;;;-3.05;67.16;101510.61;107314;1254;108785;-60
2023/03/03 03:02:14;;;;;;;62.70;27.00;;;;;;;-3.06;66.97;101506.05;107385;1254;97833;-59
2023/03/03 03:04:43;;;;;;;51.90;24.50;;;;;;;-3.08;67.02;101506.28;107420;1254;98455;-59
2023/03/03 03:07:15;;;;;;;62.20;28.40;;;;;;;-3.08;67.04;101503.11;107382;1254;112276;-59
2023/03/03 03:09:44;;;;;;;59.90;26.30;;;;;;;-3.06;67.14;101496.24;107419;1254;110064;-59
2023/03/03 03:12:14;;;;;;;61.00;26.80;;;;;;;-3.05;67.19;101489.36;107405;1254;107948;-60
2023/03/03 03:14:43;;;;;;;49.00;25.10;;;;;;;-3.02;67.24;101487.90;107302;1254;97941;-59
2023/03/03 03:17:12;;;;;;;60.50;25.70;;;;;;;-2.98;67.46;101484.66;107461;1254;98469;-60
2023/03/03 03:19:40;;;;;;;54.10;27.00;;;;;;;-2.99;67.32;101486.27;107490;1257;111316;-59
2023/03/03 03:22:09;;;;;;;70.00;30.30;;;;;;;-3.04;66.98;101484.07;107447;1254;109071;-59
2023/03/03 03:24:37;;;;;;;64.70;29.20;;;;;;;-3.09;66.82;101484.71;107440;1253;108741;-58
2023/03/03 03:27:07;;;;;;;71.50;33.30;;;;;;;-3.15;66.78;101480.27;107528;1254;97811;-59
2023/03/03 03:29:36;;;;;;;77.90;33.40;;;;;;;-3.22;66.46;101479.01;107433;1254;97720;-61
2023/03/03 03:32:05;;;;;;;67.20;31.10;;;;;;;-3.30;66.34;101476.52;107458;1254;112201;-58
2023/03/03 03:34:33;;;;;;;69.90;31.60;;;;;;;-3.34;66.36;101479.58;107287;1255;109844;-60
2023/03/03 03:37:01;;;;;;;58.20;28.00;;;;;;;-3.37;66.30;101479.48;107445;1254;108136;-59
2023/03/03 03:39:32;;;;;;;58.60;28.10;;;;;;;-3.41;66.35;101477.27;107446;1254;97973;-59
2023/03/03 03:42:02;;;;;;;60.20;27.10;;;;;;;-3.46;66.25;101474.55;107472;1254;98446;-60
2023/03/03 03:44:31;;;;;;;52.70;26.70;;;;;;;-3.53;66.10;101478.20;107386;1259;112018;-60
2023/03/03 03:47:00;;;;;;;60.80;26.50;;;;;;;-3.59;65.79;101477.78;107421;1254;110198;-59
2023/03/03 03:49:29;;;;;;;58.30;26.70;;;;;;;-3.65;66.19;101473.86;107383;1259;108255;-58
2023/03/03 03:51:58;;;;;;;85.70;30.60;;;;;;;-3.70;66.04;101476.21;107443;1254;97706;-59
2023/03/03 03:54:29;;;;;;;75.60;27.60;;;;;;;-3.73;65.96;101478.92;107428;1259;97842;-59
2023/03/03 03:56:58;;;;;;;54.70;26.80;;;;;;;-3.78;66.10;101477.58;107418;1254;112235;-59
2023/03/03 03:59:27;;;;;;;56.40;26.00;;;;;;;-3.81;66.27;101476.94;107407;1254;110035;-59
2023/03/03 04:01:55;;;;;;;61.90;27.20;;;;;;;-3.84;65.93;101472.25;107341;1254;107204;-60
2023/03/03 04:04:24;;;;;;;60.70;28.20;;;;;;;-3.87;66.01;101470.73;107313;1254;97938;-60
2023/03/03 04:06:53;;;;;;;69.10;27.60;;;;;;;-3.92;66.15;101470.81;107455;1254;98515;-60
2023/03/03 04:09:22;;;;;;;60.60;25.40;;;;;;;-3.94;66.40;101464.55;107314;1254;111773;-62
2023/03/03 04:11:50;;;;;;;66.70;28.70;;;;;;;-3.95;66.45;101462.64;107325;1257;109413;-60
2023/03/03 04:14:19;;;;;;;53.70;26.60;;;;;;;-3.97;66.52;101462.14;107348;1256;108559;-59
2023/03/03 04:16:47;;;;;;;53.20;27.60;;;;;;;-3.99;65.94;101459.73;107379;1255;97790;-59
2023/03/03 04:19:17;;;;;;;56.70;26.50;;;;;;;-4.01;66.40;101459.06;107407;1254;97857;-59
2023/03/03 04:21:45;;;;;;;54.60;26.90;;;;;;;-4.04;66.51;101456.48;107457;1259;111749;-60
2023/03/03 04:24:14;;;;;;;60.80;25.30;;;;;;;-4.07;66.31;101451.44;107324;1254;109797;-59
2023/03/03 04:26:43;;;;;;;59.50;25.90;;;;;;;-4.09;66.28;101447.61;107437;1254;108496;-59
2023/03/03 04:29:11;;;;;;;58.10;26.20;;;;;;;-4.09;66.31;101444.30;107416;1254;97812;-59
2023/03/03 04:31:41;;;;;;;67.10;29.40;;;;;;;-4.11;66.27;101442.22;107419;1254;97902;-60
2023/03/03 04:34:09;;;;;;;59.70;26.30;;;;;;;-4.12;66.36;101439.95;107321;1259;111509;-60
2023/03/03 04:36:38;;;;;;;61.60;25.20;;;;;;;-4.12;66.29;101442.24;107484;1254;109042;-60
2023/03/03 04:39:07;;;;;;;57.10;26.50;;;;;;;-4.13;66.21;101441.90;107345;1254;107803;-58
2023/03/03 04:41:36;;;;;;;83.50;30.80;;;;;;;-4.14;66.26;101442.63;107455;1258;97937;-59
2023/03/03 04:44:04;;;;;;;65.90;31.90;;;;;;;-4.18;66.55;101443.75;107462;1254;98379;-59
2023/03/03 04:46:34;;;;;;;67.30;31.60;;;;;;;-4.21;66.52;101438.36;107476;1254;111902;-59
2023/03/03 04:49:06;;;;;;;58.40;29.40;;;;;;;-4.22;66.51;101438.92;107443;1254;110315;-60
2023/03/03 04:51:37;;;;;;;82.30;37.50;;;;;;;-4.23;66.56;101434.38;107371;1257;108443;-60
2023/03/03 04:54:06;;;;;;;72.70;30.00;;;;;;;-4.24;66.45;101434.55;107388;1257;97941;-60
2023/03/03 04:56:35;;;;;;;59.80;28.20;;;;;;;-4.25;66.55;101434.05;107460;1259;98383;-59
2023/03/03 04:59:04;;;;;;;54.40;25.80;;;;;;;-4.25;66.65;101438.77;107440;1259;111266;-60
2023/03/03 05:01:33;;;;;;;73.10;31.10;;;;;;;-4.26;66.95;101435.10;107396;1254;109669;-59
2023/03/03 05:04:02;;;;;;;56.20;27.50;;;;;;;-4.24;66.91;101437.36;107380;1254;108697;-60
2023/03/03 05:06:30;;;;;;;54.40;26.50;;;;;;;-4.21;67.02;101434.85;107412;1254;97814;-59
2023/03/03 05:08:58;;;;;;;58.80;25.60;;;;;;;-4.17;67.28;101433.20;107417;1254;97729;-59
2023/03/03 05:11:26;;;;;;;70.00;28.10;;;;;;;-4.12;67.20;101436.63;107455;1258;111902;-61
2023/03/03 05:13:55;;;;;;;61.40;24.00;;;;;;;-4.04;67.85;101435.09;107400;1258;109365;-59
2023/03/03 05:16:24;;;;;;;46.90;23.70;;;;;;;-3.98;67.70;101432.19;107362;1259;108442;-58
2023/03/03 05:18:52;;;;;;;97.60;28.10;;;;;;;-3.91;67.87;101435.06;107446;1254;97822;-60
2023/03/03 05:21:20;;;;;;;60.70;27.60;;;;;;;-3.83;68.21;101436.48;107410;1259;97686;-60
2023/03/03 05:23:48;;;;;;;58.50;25.80;;;;;;;-3.74;68.18;101435.63;107400;1258;111610;-59
2023/03/03 05:26:17;;;;;;;59.10;25.90;;;;;;;-3.67;68.19;101435.33;107580;1256;109715;-59
2023/03/03 05:28:45;;;;;;;59.30;25.90;;;;;;;-3.60;68.69;101432.92;107492;1254;107544;-59
2023/03/03 05:31:16;;;;;;;56.60;26.60;;;;;;;-3.51;68.34;101427.11;107350;1260;97841;-59
2023/03/03 05:33:45;;;;;;;61.10;25.40;;;;;;;-3.42;68.36;101427.31;107433;1254;97851;-59
2023/03/03 05:36:13;;;;;;;58.40;27.00;;;;;;;-3.36;68.05;101427.36;107454;1259;111548;-60
2023/03/03 05:38:42;;;;;;;74.20;27.70;;;;;;;-3.29;68.29;101424.59;107423;1254;110262;-59
2023/03/03 05:41:11;;;;;;;64.40;26.50;;;;;;;-3.23;68.30;101426.39;107416;1255;107678;-60
2023/03/03 05:43:40;;;;;;;63.80;27.80;;;;;;;-3.14;68.56;101423.93;107404;1254;97895;-59
2023/03/03 05:46:09;;;;;;;59.50;26.20;;;;;;;-3.04;68.57;101424.07;107440;1255;97772;-58
2023/03/03 05:48:38;;;;;;;64.90;25.90;;;;;;;-2.94;68.17;101419.47;107452;1254;111916;-58
2023/03/03 05:51:07;;;;;;;62.30;25.70;;;;;;;-2.86;68.47;101421.22;107455;1258;109061;-59
2023/03/03 05:53:35;;;;;;;56.30;27.70;;;;;;;-2.74;68.13;101419.20;107359;1260;109454;-58
2023/03/03 05:56:04;;;;;;;76.80;31.20;;;;;;;-2.64;67.92;101420.71;107436;1254;97837;-59
2023/03/03 05:58:33;;;;;;;57.20;26.90;;;;;;;-2.61;67.83;101420.30;107422;1254;97966;-60
2023/03/03 06:01:01;;;;;;;76.10;30.10;;;;;;;-2.60;67.87;101419.05;107404;1259;111767;-60
2023/03/03 06:03:30;;;;;;;71.80;30.90;;;;;;;-2.61;67.53;101414.88;107426;1257;109728;-60
2023/03/03 06:05:59;;;;;;;73.40;33.10;;;;;;;-2.61;67.56;101412.93;107392;1254;108842;-59
2023/03/03 06:08:28;;;;;;;84.90;33.10;;;;;;;-2.62;67.21;101413.85;107396;1260;97903;-60
2023/03/03 06:10:57;;;;;;;82.80;34.00;;;;;;;-2.65;67.71;101413.39;107458;1255;97815;-59
2023/03/03 06:13:26;;;;;;;84.70;36.20;;;;;;;-2.66;67.33;101410.77;107474;1254;111042;-59
2023/03/03 06:15:54;;;;;;;93.00;37.50;;;;;;;-2.64;67.41;101414.59;107452;1254;109716;-59
2023/03/03 06:18:22;;;;;;;91.90;38.50;;;;;;;-2.62;67.39;101414.52;107386;1259;108524;-60
2023/03/03 06:20:52;;;;;;;86.60;36.60;;;;;;;-2.58;67.54;101415.13;107415;1259;97912;-60
2023/03/03 06:23:21;;;;;;;85.00;37.70;;;;;;;-2.55;67.35;101412.80;107453;1258;98373;-59
2023/03/03 06:25:50;;;;;;;91.40;40.50;;;;;;;-2.50;67.77;101414.08;107431;1259;112905;-59
2023/03/03 06:28:18;;;;;;;92.70;40.20;;;;;;;-2.46;67.76;101414.16;107399;1257;110056;-59
2023/03/03 06:30:47;;;;;;;80.40;37.50;;;;;;;-2.42;67.84;101412.13;107324;1259;108628;-59
2023/03/03 06:33:15;;;;;;;98.90;41.10;;;;;;;-2.37;67.95;101414.29;107456;1254;97839;-59
2023/03/03 06:35:43;;;;;;;79.00;38.80;;;;;;;-2.32;67.92;101416.10;107410;1256;97863;-59
2023/03/03 06:38:12;;;;;;;93.40;41.70;;;;;;;-2.27;68.08;101417.91;107550;1257;112531;-59
2023/03/03 06:40:40;;;;;;;88.30;42.30;;;;;;;-2.21;68.38;101417.59;107501;1255;110230;-59
2023/03/03 06:43:08;;;;;;;103.60;40.60;;;;;;;-2.14;68.45;101416.73;107352;1254;108280;-60
2023/03/03 06:45:37;;;;;;;112.70;44.20;;;;;;;-2.08;68.00;101415.67;107442;1258;97836;-60
2023/03/03 06:48:06;;;;;;;109.80;42.60;;;;;;;-1.99;68.25;101419.33;107474;1254;97707;-60
2023/03/03 06:50:34;;;;;;;81.40;40.20;;;;;;;-1.90;68.40;101416.83;107440;1255;112808;-61
2023/03/03 06:53:20;;;;;;;82.20;43.70;;;;;;;-1.82;68.53;101420.13;107547;1257;109740;-59
2023/03/03 06:55:49;;;;;;;79.80;43.40;;;;;;;-1.74;68.59;101417.09;107482;1256;108667;-60
2023/03/03 06:58:23;;;;;;;68.50;33.10;;;;;;;-1.66;68.78;101410.73;107422;1259;97935;-59
2023/03/03 07:00:57;;;;;;;61.40;29.90;;;;;;;-1.60;69.27;101411.27;107381;1254;97881;-60
2023/03/03 07:03:33;;;;;;;77.20;34.40;;;;;;;-1.50;69.15;101413.80;107453;1259;111352;-62
2023/03/03 07:06:15;;;;;;;68.00;31.80;;;;;;;-1.39;69.59;101412.09;107430;1255;109729;-59
2023/03/03 07:08:43;;;;;;;83.00;34.40;;;;;;;-1.26;70.61;101412.96;107412;1258;108842;-59
2023/03/03 07:11:16;;;;;;;68.30;31.10;;;;;;;-1.14;71.46;101407.33;107416;1255;97906;-59
2023/03/03 07:13:53;;;;;;;68.10;33.20;;;;;;;-1.00;71.27;101403.21;107424;1260;98026;-62
2023/03/03 07:16:27;;;;;;;69.90;30.70;;;;;;;-0.88;71.28;101403.05;107389;1254;111886;-59
2023/03/03 07:19:04;;;;;;;;;;;;;;;-0.75;71.75;101403.70;107416;1254;110298;-60
2023/03/03 07:21:35;;;;;;;58.80;27.30;;;;;;;-0.64;71.53;101396.83;107421;1254;108816;-59
2023/03/03 07:24:12;;;;;;;55.00;26.90;;;;;;;-0.54;72.00;101396.33;107591;1256;97886;-60
2023/03/03 07:26:41;;;;;;;63.10;27.00;;;;;;;-0.43;71.83;101388.59;107508;1255;98428;-60
2023/03/03 07:29:18;;;;;;;66.40;31.80;;;;;;;-0.32;72.05;101385.94;107294;1255;112330;-58
2023/03/03 07:31:48;;;;;;;59.40;27.20;;;;;;;-0.22;71.71;101381.72;107395;1255;109687;-60
2023/03/03 07:34:26;;;;;;;71.60;26.10;;;;;;;-0.08;71.61;101381.25;107376;1254;108259;-58
2023/03/03 07:37:00;;;;;;;47.70;24.00;;;;;;;0.04;71.47;101379.98;107396;1255;97861;-59
2023/03/03 07:39:37;;;;;;;51.40;24.60;;;;;;;0.14;71.24;101372.20;107389;1254;97839;-59
2023/03/03 07:42:08;;;;;;;57.80;26.20;;;;;;;0.26;71.00;101368.42;107437;1257;112154;-59
2023/03/03 07:44:37;;;;;;;57.50;25.30;;;;;;;0.39;70.91;101363.00;107451;1254;109143;-59
2023/03/03 07:47:18;;;;;;;65.90;26.20;;;;;;;0.55;70.80;101359.96;107427;1254;108505;-59
2023/03/03 07:49:49;;;;;;;53.20;24.90;;;;;;;0.70;70.63;101351.48;107417;1254;97710;-60
2023/03/03 07:52:22;;;;;;;56.50;26.40;;;;;;;0.84;70.53;101352.00;107438;1257;97806;-58
2023/03/03 07:54:51;;;;;;;58.10;29.00;;;;;;;0.97;70.23;101350.44;107445;1254;111932;-59
2023/03/03 07:57:27;;;;;;;66.60;29.20;;;;;;;1.10;70.03;101345.48;107478;1254;109088;-58
2023/03/03 08:00:27;;;;;;;62.50;30.00;;;;;;;1.24;69.84;101343.89;107458;1254;108821;-61
2023/03/03 08:02:59;;;;;;;61.40;29.30;;;;;;;1.41;69.50;101340.41;107442;1254;97814;-60
2023/03/03 08:05:27;;;;;;;59.40;28.70;;;;;;;1.52;69.43;101338.67;107473;1254;97724;-61
2023/03/03 08:08:30;;;;;;;64.30;30.70;;;;;;;1.67;69.15;101333.13;107486;1254;112133;-60
2023/03/03 08:11:00;;;;;;;61.80;28.60;;;;;;;1.87;69.23;101334.75;107443;1254;110052;-60
2023/03/03 08:13:31;;;;;;;60.40;29.90;;;;;;;2.02;68.90;101328.96;107448;1254;107685;-60
2023/03/03 08:16:08;;;;;;;54.40;28.50;;;;;;;2.15;68.51;101328.91;107434;1257;97950;-58
2023/03/03 08:18:49;;;;;;;55.50;28.50;;;;;;;2.29;68.38;101323.88;107462;1254;97800;-60
2023/03/03 08:21:25;;;;;;;63.90;29.40;;;;;;;2.44;68.01;101325.32;107476;1254;111428;-59
2023/03/03 08:23:54;;;;;;;68.60;31.00;;;;;;;2.58;67.68;101320.98;107438;1257;110093;-59
2023/03/03 08:26:24;;;;;;;69.60;32.60;;;;;;;2.71;67.36;101322.16;107420;1254;109470;-58
2023/03/03 08:28:54;;;;;;;66.80;30.90;;;;;;;2.86;67.10;101317.56;107461;1254;97912;-60
2023/03/03 08:31:22;;;;;;;57.70;30.00;;;;;;;3.02;66.84;101314.48;107487;1254;97697;-61
2023/03/03 08:34:08;;;;;;;64.20;30.70;;;;;;;3.23;66.59;101310.85;107447;1254;112199;-60
2023/03/03 08:36:36;;;;;;;50.10;27.50;;;;;;;3.40;65.94;101306.83;107454;1254;109715;-60
2023/03/03 08:39:05;;;;;;;58.70;25.90;;;;;;;3.58;65.70;101303.80;107437;1254;108386;-61
2023/03/03 08:41:33;;;;;;;62.90;24.80;;;;;;;3.75;64.07;101299.57;107424;1254;97818;-59
2023/03/03 08:44:02;;;;;;;45.20;22.20;;;;;;;3.90;63.10;101294.35;107472;1255;97721;-62
2023/03/03 08:46:31;;;;;;;49.60;23.70;;;;;;;4.08;63.54;101292.67;107475;1254;112467;-59
2023/03/03 08:49:00;;;;;;;47.20;24.00;;;;;;;4.31;63.11;101290.79;107466;1254;108456;-60
2023/03/03 08:51:28;;;;;;;54.80;22.70;;;;;;;4.55;63.30;101286.42;107418;1254;108512;-59
2023/03/03 08:53:56;;;;;;;47.60;22.50;;;;;;;4.81;62.79;101285.54;107431;1254;97823;-59
2023/03/03 08:56:25;;;;;;;50.30;22.70;;;;;;;5.08;62.52;101282.80;107438;1254;97691;-59
2023/03/03 08:58:53;;;;;;;47.20;23.10;;;;;;;5.31;61.67;101278.09;107489;1254;112850;-59
2023/03/03 09:01:31;;;;;;;46.00;19.70;;;;;;;5.53;59.72;101272.73;107452;1254;109623;-61
2023/03/03 09:04:00;;;;;;;36.00;20.20;;;;;;;5.78;59.61;101272.16;107455;1254;108728;-60
2023/03/03 09:06:28;;;;;;;37.80;20.10;;;;;;;6.03;58.99;101266.39;107427;1254;97809;-65
2023/03/03 09:08:56;;;;;;;58.30;23.10;;;;;;;6.28;58.39;101258.23;107447;1254;97706;-65
2023/03/03 09:11:27;;;;;;;47.80;20.50;;;;;;;6.59;56.87;101260.23;107327;1254;110937;-65
2023/03/03 09:14:11;;;;;;;46.20;21.20;;;;;;;6.89;54.98;101255.11;107471;1254;110146;-65
2023/03/03 09:16:47;;;;;;;62.50;23.50;;;;;;;7.21;53.74;101251.91;107441;1254;108546;-68
2023/03/03 09:19:35;;;;;;;45.10;19.70;;;;;;;7.50;53.39;101247.33;107442;1254;97857;-68
2023/03/03 09:22:23;;;;;;;48.20;21.00;;;;;;;7.85;53.61;101237.09;107485;1254;97834;-66
2023/03/03 09:24:58;;;;;;;43.40;21.10;;;;;;;8.22;51.44;101231.82;107469;1254;111591;-65
2023/03/03 09:27:28;;;;;;;47.80;20.60;;;;;;;8.63;51.68;101232.84;107466;1254;108625;-67
2023/03/03 09:30:01;;;;;;;60.20;21.90;;;;;;;9.23;51.15;101228.93;107432;1254;109440;-67
2023/03/03 09:32:38;;;;;;;43.70;21.00;;;;;;;10.14;51.08;101228.05;107453;1254;97848;-66
2023/03/03 09:35:29;;;;;;;46.30;21.00;;;;;;;11.11;47.57;101217.70;107484;1254;97911;-66
2023/03/03 09:37:57;;;;;;;42.10;20.60;;;;;;;11.93;47.39;101210.18;107367;1254;112140;-67
2023/03/03 09:40:29;;;;;;;49.80;18.90;;;;;;;12.72;45.40;101207.02;107458;1254;110067;-69
2023/03/03 09:43:03;;;;;;;50.30;20.80;;;;;;;13.46;45.16;101200.56;107429;1254;108558;-69
2023/03/03 09:45:47;;;;;;;42.30;18.90;;;;;;;14.24;45.24;101196.29;107420;1254;97799;-70
2023/03/03 09:48:43;;;;;;;42.60;18.00;;;;;;;14.94;39.63;101188.38;107437;1254;97881;-68
2023/03/03 09:51:45;;;;;;;42.60;15.50;;;;;;;15.38;36.39;101188.63;107354;1254;111904;-67
2023/03/03 09:54:25;;;;;;;35.70;13.60;;;;;;;15.72;36.90;101182.42;106841;1254;110477;-67
2023/03/03 09:57:13;;;;;;;28.10;14.40;;;;;;;16.08;35.41;101180.71;107393;1257;109057;-67
2023/03/03 09:59:44;;;;;;;30.90;15.70;;;;;;;16.52;35.31;101176.60;107332;1257;97857;-67
2023/03/03 10:03:02;;;;;;;42.80;15.30;;;;;;;17.04;36.77;101168.25;107386;1254;98441;-66
2023/03/03 10:05:58;;;;;;;23.10;12.30;;;;;;;17.71;33.98;101170.13;106776;1264;112983;-67
2023/03/03 10:08:46;;;;;;;22.40;12.00;;;;;;;18.12;32.59;101170.37;106756;1264;111225;-66
2023/03/03 10:11:23;;;;;;;33.90;13.80;;;;;;;18.39;30.90;101164.36;107316;1254;109465;-70
2023/03/03 10:13:51;;;;;;;27.50;14.20;;;;;;;18.83;32.61;101162.80;107423;1254;97918;-68
2023/03/03 10:17:08;;;;;;;45.80;13.90;;;;;;;19.28;31.00;101155.52;107458;1254;97761;-71
2023/03/03 10:19:47;;;;;;;35.70;13.50;;;;;;;19.06;30.25;101142.52;107120;1254;113524;-69
2023/03/03 10:22:27;;;;;;;30.10;12.30;;;;;;;19.36;30.95;101139.99;107504;1254;110065;-69
2023/03/03 10:25:08;;;;;;;30.10;13.30;;;;;;;19.81;29.54;101133.25;107483;1254;109258;-70
2023/03/03 10:28:01;;;;;;;24.00;11.50;;;;;;;20.18;28.48;101129.11;107415;1254;97926;-67
2023/03/03 10:30:39;;;;;;;20.40;10.10;;;;;;;20.35;27.76;101130.09;107411;1254;97697;-67
2023/03/03 10:33:43;;;;;;;21.40;9.90;;;;;;;20.49;27.96;101124.42;107461;1254;112590;-66
2023/03/03 10:36:51;;;;;;;16.90;10.70;;;;;;;20.89;27.27;101114.77;107473;1254;109761;-68
2023/03/03 10:39:38;;;;;;;22.50;11.80;;;;;;;20.89;24.74;101115.02;107416;1257;108774;-67
2023/03/03 10:42:10;;;;;;;21.50;10.50;;;;;;;20.85;26.04;101106.61;107431;1254;97845;-67
2023/03/03 10:45:03;;;;;;;25.40;12.00;;;;;;;21.10;25.74;101104.10;107436;1254;98335;-66
2023/03/03 10:47:57;;;;;;;18.60;11.40;;;;;;;20.92;24.13;101094.83;107427;1254;112160;-65
2023/03/03 10:50:30;;;;;;;18.70;11.20;;;;;;;20.91;24.82;101095.86;107461;1257;109712;-65
2023/03/03 10:53:04;;;;;;;29.40;11.70;;;;;;;21.28;25.43;101089.76;107289;1254;108335;-64
2023/03/03 10:55:36;;;;;;;18.60;10.60;;;;;;;21.74;25.16;101090.48;107406;1254;97691;-65
2023/03/03 10:58:39;;;;;;;19.20;10.00;;;;;;;21.87;23.89;101086.58;107271;1260;98344;-65
2023/03/03 11:01:31;;;;;;;18.10;11.70;;;;;;;22.08;24.26;101075.21;107416;1257;112095;-66
2023/03/03 11:04:18;;;;;;;17.20;11.50;;;;;;;22.49;25.11;101063.70;107402;1254;109576;-67
2023/03/03 11:06:49;;;;;;;27.50;12.20;;;;;;;22.96;24.96;101062.64;107427;1254;109168;-65
2023/03/03 11:10:08;;;;;;;22.70;11.20;;;;;;;23.50;23.66;101054.78;107397;1254;97996;-66
2023/03/03 11:12:48;;;;;;;19.80;10.30;;;;;;;23.84;22.72;101053.98;107137;1254;98335;-67
2023/03/03 11:15:40;;;;;;;22.10;11.20;;;;;;;23.75;22.59;101054.44;107448;1254;112332;-66
2023/03/03 11:18:27;;;;;;;28.00;11.10;;;;;;;23.65;22.52;101050.80;107459;1254;109591;-63
2023/03/03 11:21:29;;;;;;;24.80;10.90;;;;;;;24.01;23.05;101046.27;107394;1257;108166;-66
2023/03/03 11:24:00;;;;;;;23.50;11.10;;;;;;;24.38;21.74;101047.05;107351;1254;97707;-65
2023/03/03 11:26:33;;;;;;;30.50;11.40;;;;;;;24.12;21.62;101040.34;107426;1256;97793;-68
2023/03/03 11:29:13;;;;;;;18.20;11.30;;;;;;;24.02;22.34;101040.10;107409;1254;113108;-67